sensor_id;sensor_type;location;lat;lon;timestamp;P1;durP1;ratioP1;P2;durP2;ratioP2
4821;SDS011;2425;47.794;13.068;2023-11-21T00:00:41;2.70;;;2.20;;
4821;SDS011;2425;47.794;13.068;2023-11-21T00:03:09;3.60;;;2.70;;
4821;SDS011;2425;47.794;13.068;2023-11-21T00:05:36;2.63;;;2.53;;
4821;SDS011;2425;47.794;13.068;2023-11-21T00:08:03;2.37;;;2.27;;
4821;SDS011;2425;47.794;13.068;2023-11-21T00:10:30;3.20;;;2.77;;
4821;SDS011;2425;47.794;13.068;2023-11-21T00:12:57;2.20;;;2.10;;
4821;SDS011;2425;47.794;13.068;2023-11-21T00:15:23;2.20;;;2.10;;
4821;SDS011;2425;47.794;13.068;2023-11-21T00:17:51;2.20;;;1.97;;
4821;SDS011;2425;47.794;13.068;2023-11-21T00:20:20;2.50;;;2.40;;
4821;SDS011;2425;47.794;13.068;2023-11-21T00:22:47;2.63;;;2.53;;
4821;SDS011;2425;47.794;13.068;2023-11-21T00:25:14;2.30;;;2.20;;
4821;SDS011;2425;47.794;13.068;2023-11-21T00:27:42;2.30;;;2.20;;
4821;SDS011;2425;47.794;13.068;2023-11-21T00:30:09;2.40;;;2.30;;
4821;SDS011;2425;47.794;13.068;2023-11-21T00:32:36;1.90;;;1.90;;
4821;SDS011;2425;47.794;13.068;2023-11-21T00:35:03;2.43;;;2.23;;
4821;SDS011;2425;47.794;13.068;2023-11-21T00:37:32;2.30;;;2.20;;
4821;SDS011;2425;47.794;13.068;2023-11-21T00:39:59;2.87;;;2.67;;
4821;SDS011;2425;47.794;13.068;2023-11-21T00:42:27;2.20;;;2.10;;
4821;SDS011;2425;47.794;13.068;2023-11-21T00:44:54;2.30;;;2.20;;
4821;SDS011;2425;47.794;13.068;2023-11-21T00:47:21;2.90;;;2.20;;
4821;SDS011;2425;47.794;13.068;2023-11-21T00:49:47;2.67;;;2.47;;
4821;SDS011;2425;47.794;13.068;2023-11-21T00:52:14;2.37;;;2.27;;
4821;SDS011;2425;47.794;13.068;2023-11-21T00:54:43;2.50;;;2.30;;
4821;SDS011;2425;47.794;13.068;2023-11-21T00:57:10;2.43;;;1.93;;
4821;SDS011;2425;47.794;13.068;2023-11-21T00:59:37;2.13;;;2.03;;
4821;SDS011;2425;47.794;13.068;2023-11-21T01:02:04;2.17;;;2.07;;
4821;SDS011;2425;47.794;13.068;2023-11-21T01:04:31;2.00;;;1.90;;
4821;SDS011;2425;47.794;13.068;2023-11-21T01:06:58;1.77;;;1.70;;
4821;SDS011;2425;47.794;13.068;2023-11-21T01:09:24;2.67;;;2.53;;
4821;SDS011;2425;47.794;13.068;2023-11-21T01:11:54;2.50;;;2.40;;
4821;SDS011;2425;47.794;13.068;2023-11-21T01:14:22;1.87;;;1.77;;
4821;SDS011;2425;47.794;13.068;2023-11-21T01:16:48;2.03;;;1.90;;
4821;SDS011;2425;47.794;13.068;2023-11-21T01:19:15;2.33;;;1.90;;
4821;SDS011;2425;47.794;13.068;2023-11-21T01:21:42;2.33;;;2.13;;
4821;SDS011;2425;47.794;13.068;2023-11-21T01:24:08;2.23;;;2.13;;
4821;SDS011;2425;47.794;13.068;2023-11-21T01:26:35;1.93;;;1.87;;
4821;SDS011;2425;47.794;13.068;2023-11-21T01:29:04;1.90;;;1.80;;
4821;SDS011;2425;47.794;13.068;2023-11-21T01:31:30;2.50;;;2.30;;
4821;SDS011;2425;47.794;13.068;2023-11-21T01:33:57;2.33;;;2.23;;
4821;SDS011;2425;47.794;13.068;2023-11-21T01:36:29;4.43;;;2.17;;
4821;SDS011;2425;47.794;13.068;2023-11-21T01:38:57;2.20;;;2.10;;
4821;SDS011;2425;47.794;13.068;2023-11-21T01:41:25;1.97;;;1.97;;
4821;SDS011;2425;47.794;13.068;2023-11-21T01:43:53;2.13;;;1.93;;
4821;SDS011;2425;47.794;13.068;2023-11-21T01:46:21;2.00;;;1.67;;
4821;SDS011;2425;47.794;13.068;2023-11-21T01:48:49;2.37;;;2.17;;
4821;SDS011;2425;47.794;13.068;2023-11-21T01:51:15;2.30;;;2.10;;
4821;SDS011;2425;47.794;13.068;2023-11-21T01:53:43;1.40;;;1.40;;
4821;SDS011;2425;47.794;13.068;2023-11-21T01:56:10;2.20;;;1.87;;
4821;SDS011;2425;47.794;13.068;2023-11-21T01:58:37;1.70;;;1.70;;
4821;SDS011;2425;47.794;13.068;2023-11-21T02:01:04;4.60;;;2.50;;
4821;SDS011;2425;47.794;13.068;2023-11-21T02:03:32;2.13;;;1.93;;
4821;SDS011;2425;47.794;13.068;2023-11-21T02:05:59;2.10;;;2.00;;
4821;SDS011;2425;47.794;13.068;2023-11-21T02:08:26;3.07;;;2.00;;
4821;SDS011;2425;47.794;13.068;2023-11-21T02:10:53;2.03;;;1.93;;
4821;SDS011;2425;47.794;13.068;2023-11-21T02:13:20;1.80;;;1.73;;
4821;SDS011;2425;47.794;13.068;2023-11-21T02:15:46;1.93;;;1.83;;
4821;SDS011;2425;47.794;13.068;2023-11-21T02:18:16;2.20;;;2.10;;
4821;SDS011;2425;47.794;13.068;2023-11-21T02:20:44;1.70;;;1.70;;
4821;SDS011;2425;47.794;13.068;2023-11-21T02:23:13;1.90;;;1.80;;
4821;SDS011;2425;47.794;13.068;2023-11-21T02:25:39;1.80;;;1.70;;
4821;SDS011;2425;47.794;13.068;2023-11-21T02:28:07;1.60;;;1.60;;
4821;SDS011;2425;47.794;13.068;2023-11-21T02:30:34;1.67;;;1.67;;
4821;SDS011;2425;47.794;13.068;2023-11-21T02:33:02;2.30;;;1.90;;
4821;SDS011;2425;47.794;13.068;2023-11-21T02:35:29;1.80;;;1.60;;
4821;SDS011;2425;47.794;13.068;2023-11-21T02:37:56;1.53;;;1.53;;
4821;SDS011;2425;47.794;13.068;2023-11-21T02:40:24;2.33;;;2.00;;
4821;SDS011;2425;47.794;13.068;2023-11-21T02:42:51;1.67;;;1.67;;
4821;SDS011;2425;47.794;13.068;2023-11-21T02:45:18;1.90;;;1.80;;
4821;SDS011;2425;47.794;13.068;2023-11-21T02:47:47;1.73;;;1.63;;
4821;SDS011;2425;47.794;13.068;2023-11-21T02:50:14;2.10;;;1.83;;
4821;SDS011;2425;47.794;13.068;2023-11-21T02:52:40;1.60;;;1.50;;
4821;SDS011;2425;47.794;13.068;2023-11-21T02:55:07;1.67;;;1.57;;
4821;SDS011;2425;47.794;13.068;2023-11-21T02:57:36;1.80;;;1.70;;
4821;SDS011;2425;47.794;13.068;2023-11-21T03:00:03;1.60;;;1.53;;
4821;SDS011;2425;47.794;13.068;2023-11-21T03:02:32;2.03;;;1.90;;
4821;SDS011;2425;47.794;13.068;2023-11-21T03:05:01;2.10;;;2.00;;
4821;SDS011;2425;47.794;13.068;2023-11-21T03:07:30;5.70;;;1.87;;
4821;SDS011;2425;47.794;13.068;2023-11-21T03:09:56;1.60;;;1.60;;
4821;SDS011;2425;47.794;13.068;2023-11-21T03:12:23;5.00;;;1.70;;
4821;SDS011;2425;47.794;13.068;2023-11-21T03:14:52;1.90;;;1.80;;
4821;SDS011;2425;47.794;13.068;2023-11-21T03:17:19;1.90;;;1.80;;
4821;SDS011;2425;47.794;13.068;2023-11-21T03:19:46;1.50;;;1.40;;
4821;SDS011;2425;47.794;13.068;2023-11-21T03:22:13;1.40;;;1.40;;
4821;SDS011;2425;47.794;13.068;2023-11-21T03:24:39;2.23;;;1.60;;
4821;SDS011;2425;47.794;13.068;2023-11-21T03:27:06;1.83;;;1.73;;
4821;SDS011;2425;47.794;13.068;2023-11-21T03:29:33;1.80;;;1.70;;
4821;SDS011;2425;47.794;13.068;2023-11-21T03:32:01;1.60;;;1.50;;
4821;SDS011;2425;47.794;13.068;2023-11-21T03:34:28;1.90;;;1.80;;
4821;SDS011;2425;47.794;13.068;2023-11-21T03:36:55;2.03;;;1.93;;
4821;SDS011;2425;47.794;13.068;2023-11-21T03:39:21;1.93;;;1.83;;
4821;SDS011;2425;47.794;13.068;2023-11-21T03:41:48;1.67;;;1.60;;
4821;SDS011;2425;47.794;13.068;2023-11-21T03:44:17;2.20;;;2.10;;
4821;SDS011;2425;47.794;13.068;2023-11-21T03:46:44;1.70;;;1.60;;
4821;SDS011;2425;47.794;13.068;2023-11-21T03:49:12;1.10;;;1.10;;
4821;SDS011;2425;47.794;13.068;2023-11-21T03:51:38;1.30;;;1.30;;
4821;SDS011;2425;47.794;13.068;2023-11-21T03:54:04;2.90;;;1.90;;
4821;SDS011;2425;47.794;13.068;2023-11-21T03:56:31;4.93;;;1.77;;
4821;SDS011;2425;47.794;13.068;2023-11-21T03:58:57;1.17;;;1.17;;
4821;SDS011;2425;47.794;13.068;2023-11-21T04:01:24;1.40;;;1.40;;
4821;SDS011;2425;47.794;13.068;2023-11-21T04:03:51;1.30;;;1.30;;
4821;SDS011;2425;47.794;13.068;2023-11-21T04:06:19;1.80;;;1.80;;
4821;SDS011;2425;47.794;13.068;2023-11-21T04:08:46;1.80;;;1.63;;
4821;SDS011;2425;47.794;13.068;2023-11-21T04:11:12;7.60;;;1.60;;
4821;SDS011;2425;47.794;13.068;2023-11-21T04:13:39;1.50;;;1.50;;
4821;SDS011;2425;47.794;13.068;2023-11-21T04:16:07;2.20;;;1.37;;
4821;SDS011;2425;47.794;13.068;2023-11-21T04:18:35;1.37;;;1.37;;
4821;SDS011;2425;47.794;13.068;2023-11-21T04:21:02;3.40;;;1.30;;
4821;SDS011;2425;47.794;13.068;2023-11-21T04:23:30;1.33;;;1.33;;
4821;SDS011;2425;47.794;13.068;2023-11-21T04:25:57;1.60;;;1.60;;
4821;SDS011;2425;47.794;13.068;2023-11-21T04:28:24;1.40;;;1.40;;
4821;SDS011;2425;47.794;13.068;2023-11-21T04:30:51;1.70;;;1.60;;
4821;SDS011;2425;47.794;13.068;2023-11-21T04:33:17;1.53;;;1.37;;
4821;SDS011;2425;47.794;13.068;2023-11-21T04:35:44;1.30;;;1.30;;
4821;SDS011;2425;47.794;13.068;2023-11-21T04:38:11;1.63;;;1.57;;
4821;SDS011;2425;47.794;13.068;2023-11-21T04:40:39;1.53;;;1.50;;
4821;SDS011;2425;47.794;13.068;2023-11-21T04:43:06;1.67;;;1.57;;
4821;SDS011;2425;47.794;13.068;2023-11-21T04:45:32;2.60;;;1.50;;
4821;SDS011;2425;47.794;13.068;2023-11-21T04:47:59;1.10;;;1.10;;
4821;SDS011;2425;47.794;13.068;2023-11-21T04:50:26;1.53;;;1.47;;
4821;SDS011;2425;47.794;13.068;2023-11-21T04:52:53;1.70;;;1.70;;
4821;SDS011;2425;47.794;13.068;2023-11-21T04:55:20;1.37;;;1.27;;
4821;SDS011;2425;47.794;13.068;2023-11-21T04:57:48;1.27;;;1.27;;
4821;SDS011;2425;47.794;13.068;2023-11-21T05:00:15;1.40;;;1.40;;
4821;SDS011;2425;47.794;13.068;2023-11-21T05:02:42;1.43;;;1.40;;
4821;SDS011;2425;47.794;13.068;2023-11-21T05:05:09;1.20;;;1.20;;
4821;SDS011;2425;47.794;13.068;2023-11-21T05:07:36;1.53;;;1.40;;
4821;SDS011;2425;47.794;13.068;2023-11-21T05:10:03;1.50;;;1.40;;
4821;SDS011;2425;47.794;13.068;2023-11-21T05:12:33;1.60;;;1.50;;
4821;SDS011;2425;47.794;13.068;2023-11-21T05:15:03;1.77;;;1.07;;
4821;SDS011;2425;47.794;13.068;2023-11-21T05:17:32;1.40;;;1.30;;
4821;SDS011;2425;47.794;13.068;2023-11-21T05:19:59;1.70;;;1.07;;
4821;SDS011;2425;47.794;13.068;2023-11-21T05:22:29;1.73;;;1.73;;
4821;SDS011;2425;47.794;13.068;2023-11-21T05:24:55;3.40;;;1.40;;
4821;SDS011;2425;47.794;13.068;2023-11-21T05:27:24;1.47;;;1.47;;
4821;SDS011;2425;47.794;13.068;2023-11-21T05:29:51;1.40;;;1.40;;
4821;SDS011;2425;47.794;13.068;2023-11-21T05:32:19;1.67;;;1.50;;
4821;SDS011;2425;47.794;13.068;2023-11-21T05:34:46;1.60;;;1.50;;
4821;SDS011;2425;47.794;13.068;2023-11-21T05:37:12;1.17;;;1.07;;
4821;SDS011;2425;47.794;13.068;2023-11-21T05:39:39;1.60;;;1.50;;
4821;SDS011;2425;47.794;13.068;2023-11-21T05:42:06;1.10;;;1.10;;
4821;SDS011;2425;47.794;13.068;2023-11-21T05:44:34;1.27;;;1.17;;
4821;SDS011;2425;47.794;13.068;2023-11-21T05:47:01;1.50;;;1.40;;
4821;SDS011;2425;47.794;13.068;2023-11-21T05:49:30;1.40;;;1.40;;
4821;SDS011;2425;47.794;13.068;2023-11-21T05:51:57;1.17;;;1.17;;
4821;SDS011;2425;47.794;13.068;2023-11-21T05:54:24;1.17;;;1.17;;
4821;SDS011;2425;47.794;13.068;2023-11-21T05:56:51;1.10;;;1.10;;
4821;SDS011;2425;47.794;13.068;2023-11-21T05:59:18;1.40;;;1.30;;
4821;SDS011;2425;47.794;13.068;2023-11-21T06:01:45;1.40;;;1.30;;
4821;SDS011;2425;47.794;13.068;2023-11-21T06:04:12;1.40;;;1.40;;
4821;SDS011;2425;47.794;13.068;2023-11-21T06:06:41;1.10;;;1.00;;
4821;SDS011;2425;47.794;13.068;2023-11-21T06:09:07;1.50;;;1.40;;
4821;SDS011;2425;47.794;13.068;2023-11-21T06:11:34;1.30;;;1.20;;
4821;SDS011;2425;47.794;13.068;2023-11-21T06:14:01;1.17;;;1.17;;
4821;SDS011;2425;47.794;13.068;2023-11-21T06:16:28;1.50;;;1.40;;
4821;SDS011;2425;47.794;13.068;2023-11-21T06:18:55;1.10;;;1.10;;
4821;SDS011;2425;47.794;13.068;2023-11-21T06:21:21;1.40;;;1.40;;
4821;SDS011;2425;47.794;13.068;2023-11-21T06:23:50;1.57;;;1.57;;
4821;SDS011;2425;47.794;13.068;2023-11-21T06:26:18;1.30;;;1.30;;
4821;SDS011;2425;47.794;13.068;2023-11-21T06:28:45;1.47;;;1.37;;
4821;SDS011;2425;47.794;13.068;2023-11-21T06:31:15;0.90;;;0.90;;
4821;SDS011;2425;47.794;13.068;2023-11-21T06:33:57;1.40;;;1.40;;
4821;SDS011;2425;47.794;13.068;2023-11-21T06:36:34;1.27;;;1.10;;
4821;SDS011;2425;47.794;13.068;2023-11-21T06:39:02;1.50;;;1.40;;
4821;SDS011;2425;47.794;13.068;2023-11-21T06:41:31;1.30;;;1.30;;
4821;SDS011;2425;47.794;13.068;2023-11-21T06:43:59;1.43;;;1.33;;
4821;SDS011;2425;47.794;13.068;2023-11-21T06:46:25;1.43;;;1.37;;
4821;SDS011;2425;47.794;13.068;2023-11-21T06:48:52;1.50;;;1.40;;
4821;SDS011;2425;47.794;13.068;2023-11-21T06:51:19;1.50;;;1.40;;
4821;SDS011;2425;47.794;13.068;2023-11-21T06:53:45;2.83;;;1.30;;
4821;SDS011;2425;47.794;13.068;2023-11-21T06:56:17;1.30;;;1.30;;
4821;SDS011;2425;47.794;13.068;2023-11-21T06:58:43;1.30;;;1.30;;
4821;SDS011;2425;47.794;13.068;2023-11-21T07:01:11;1.40;;;1.40;;
4821;SDS011;2425;47.794;13.068;2023-11-21T07:03:38;1.30;;;1.30;;
4821;SDS011;2425;47.794;13.068;2023-11-21T07:06:06;1.10;;;1.10;;
4821;SDS011;2425;47.794;13.068;2023-11-21T07:08:33;1.23;;;1.23;;
4821;SDS011;2425;47.794;13.068;2023-11-21T07:11:00;0.90;;;0.90;;
4821;SDS011;2425;47.794;13.068;2023-11-21T07:13:29;1.27;;;1.17;;
4821;SDS011;2425;47.794;13.068;2023-11-21T07:15:56;3.60;;;1.43;;
4821;SDS011;2425;47.794;13.068;2023-11-21T07:18:23;1.13;;;1.10;;
4821;SDS011;2425;47.794;13.068;2023-11-21T07:20:50;1.00;;;1.00;;
4821;SDS011;2425;47.794;13.068;2023-11-21T07:23:17;1.50;;;1.40;;
4821;SDS011;2425;47.794;13.068;2023-11-21T07:25:44;4.10;;;1.40;;
4821;SDS011;2425;47.794;13.068;2023-11-21T07:28:11;4.00;;;1.17;;
4821;SDS011;2425;47.794;13.068;2023-11-21T07:30:39;1.43;;;1.17;;
4821;SDS011;2425;47.794;13.068;2023-11-21T07:33:05;1.43;;;1.20;;
4821;SDS011;2425;47.794;13.068;2023-11-21T07:35:32;3.77;;;1.50;;
4821;SDS011;2425;47.794;13.068;2023-11-21T07:37:59;7.07;;;1.73;;
4821;SDS011;2425;47.794;13.068;2023-11-21T07:40:26;3.10;;;1.70;;
4821;SDS011;2425;47.794;13.068;2023-11-21T07:42:53;7.03;;;1.80;;
4821;SDS011;2425;47.794;13.068;2023-11-21T07:45:22;1.87;;;1.63;;
4821;SDS011;2425;47.794;13.068;2023-11-21T07:47:50;10.80;;;2.07;;
4821;SDS011;2425;47.794;13.068;2023-11-21T07:50:17;2.30;;;1.80;;
4821;SDS011;2425;47.794;13.068;2023-11-21T07:52:45;4.27;;;2.00;;
4821;SDS011;2425;47.794;13.068;2023-11-21T07:55:11;8.03;;;2.17;;
4821;SDS011;2425;47.794;13.068;2023-11-21T07:57:39;2.97;;;2.07;;
4821;SDS011;2425;47.794;13.068;2023-11-21T08:00:06;3.37;;;2.63;;
4821;SDS011;2425;47.794;13.068;2023-11-21T08:02:34;4.33;;;2.00;;
4821;SDS011;2425;47.794;13.068;2023-11-21T08:05:02;2.20;;;2.10;;
4821;SDS011;2425;47.794;13.068;2023-11-21T08:07:29;2.67;;;2.20;;
4821;SDS011;2425;47.794;13.068;2023-11-21T08:09:56;4.20;;;2.50;;
4821;SDS011;2425;47.794;13.068;2023-11-21T08:12:23;2.33;;;2.23;;
4821;SDS011;2425;47.794;13.068;2023-11-21T08:14:52;3.00;;;2.40;;
4821;SDS011;2425;47.794;13.068;2023-11-21T08:17:19;9.70;;;2.70;;
4821;SDS011;2425;47.794;13.068;2023-11-21T08:19:46;4.67;;;2.53;;
4821;SDS011;2425;47.794;13.068;2023-11-21T08:22:15;4.17;;;2.90;;
4821;SDS011;2425;47.794;13.068;2023-11-21T08:24:43;3.20;;;2.90;;
4821;SDS011;2425;47.794;13.068;2023-11-21T08:27:09;4.30;;;3.37;;
4821;SDS011;2425;47.794;13.068;2023-11-21T08:29:36;3.63;;;2.90;;
4821;SDS011;2425;47.794;13.068;2023-11-21T08:32:03;3.40;;;3.10;;
4821;SDS011;2425;47.794;13.068;2023-11-21T08:34:30;5.40;;;2.80;;
4821;SDS011;2425;47.794;13.068;2023-11-21T08:36:57;5.20;;;2.60;;
4821;SDS011;2425;47.794;13.068;2023-11-21T08:39:25;5.20;;;3.63;;
4821;SDS011;2425;47.794;13.068;2023-11-21T08:41:52;21.27;;;5.83;;
4821;SDS011;2425;47.794;13.068;2023-11-21T08:44:19;30.30;;;7.10;;
4821;SDS011;2425;47.794;13.068;2023-11-21T08:46:46;43.73;;;9.03;;
4821;SDS011;2425;47.794;13.068;2023-11-21T08:49:13;38.03;;;9.33;;
4821;SDS011;2425;47.794;13.068;2023-11-21T08:51:40;51.20;;;11.20;;
4821;SDS011;2425;47.794;13.068;2023-11-21T08:54:07;47.53;;;11.23;;
4821;SDS011;2425;47.794;13.068;2023-11-21T08:56:35;47.30;;;12.67;;
4821;SDS011;2425;47.794;13.068;2023-11-21T08:59:02;46.20;;;11.80;;
4821;SDS011;2425;47.794;13.068;2023-11-21T09:01:28;48.87;;;12.20;;
4821;SDS011;2425;47.794;13.068;2023-11-21T09:03:56;47.07;;;12.97;;
4821;SDS011;2425;47.794;13.068;2023-11-21T09:06:23;50.07;;;13.77;;
4821;SDS011;2425;47.794;13.068;2023-11-21T09:08:49;41.50;;;12.53;;
4821;SDS011;2425;47.794;13.068;2023-11-21T09:11:16;53.23;;;13.70;;
4821;SDS011;2425;47.794;13.068;2023-11-21T09:13:45;52.80;;;13.30;;
4821;SDS011;2425;47.794;13.068;2023-11-21T09:16:12;50.93;;;13.90;;
4821;SDS011;2425;47.794;13.068;2023-11-21T09:18:40;49.87;;;13.83;;
4821;SDS011;2425;47.794;13.068;2023-11-21T09:21:07;50.93;;;13.43;;
4821;SDS011;2425;47.794;13.068;2023-11-21T09:23:34;46.83;;;12.87;;
4821;SDS011;2425;47.794;13.068;2023-11-21T09:26:00;45.20;;;12.20;;
4821;SDS011;2425;47.794;13.068;2023-11-21T09:28:27;40.27;;;12.37;;
4821;SDS011;2425;47.794;13.068;2023-11-21T09:30:55;43.90;;;12.70;;
4821;SDS011;2425;47.794;13.068;2023-11-21T09:33:22;39.47;;;12.17;;
4821;SDS011;2425;47.794;13.068;2023-11-21T09:35:50;51.73;;;11.67;;
4821;SDS011;2425;47.794;13.068;2023-11-21T09:38:17;37.10;;;11.50;;
4821;SDS011;2425;47.794;13.068;2023-11-21T09:40:44;35.43;;;11.77;;
4821;SDS011;2425;47.794;13.068;2023-11-21T09:43:16;37.63;;;10.30;;
4821;SDS011;2425;47.794;13.068;2023-11-21T09:45:45;46.13;;;12.63;;
4821;SDS011;2425;47.794;13.068;2023-11-21T09:48:13;41.60;;;10.73;;
4821;SDS011;2425;47.794;13.068;2023-11-21T09:50:41;34.80;;;10.63;;
4821;SDS011;2425;47.794;13.068;2023-11-21T09:53:11;36.10;;;11.00;;
4821;SDS011;2425;47.794;13.068;2023-11-21T09:55:42;35.43;;;10.77;;
4821;SDS011;2425;47.794;13.068;2023-11-21T09:58:09;32.87;;;11.10;;
4821;SDS011;2425;47.794;13.068;2023-11-21T10:00:38;30.57;;;9.40;;
4821;SDS011;2425;47.794;13.068;2023-11-21T10:03:06;23.90;;;8.97;;
4821;SDS011;2425;47.794;13.068;2023-11-21T10:05:35;29.53;;;8.87;;
4821;SDS011;2425;47.794;13.068;2023-11-21T10:08:02;23.57;;;8.33;;
4821;SDS011;2425;47.794;13.068;2023-11-21T10:10:31;19.27;;;8.17;;
4821;SDS011;2425;47.794;13.068;2023-11-21T10:13:01;26.83;;;8.87;;
4821;SDS011;2425;47.794;13.068;2023-11-21T10:15:31;30.20;;;8.50;;
4821;SDS011;2425;47.794;13.068;2023-11-21T10:18:01;23.97;;;8.03;;
4821;SDS011;2425;47.794;13.068;2023-11-21T10:20:28;18.63;;;8.20;;
4821;SDS011;2425;47.794;13.068;2023-11-21T10:22:57;31.13;;;8.07;;
4821;SDS011;2425;47.794;13.068;2023-11-21T10:25:23;27.70;;;8.60;;
4821;SDS011;2425;47.794;13.068;2023-11-21T10:27:55;19.00;;;7.57;;
4821;SDS011;2425;47.794;13.068;2023-11-21T10:30:27;22.23;;;7.13;;
4821;SDS011;2425;47.794;13.068;2023-11-21T10:32:58;16.40;;;6.70;;
4821;SDS011;2425;47.794;13.068;2023-11-21T10:35:25;17.33;;;7.63;;
4821;SDS011;2425;47.794;13.068;2023-11-21T10:38:06;19.93;;;7.13;;
4821;SDS011;2425;47.794;13.068;2023-11-21T10:40:37;16.00;;;6.90;;
4821;SDS011;2425;47.794;13.068;2023-11-21T10:43:07;20.73;;;6.90;;
4821;SDS011;2425;47.794;13.068;2023-11-21T10:45:35;20.50;;;7.00;;
4821;SDS011;2425;47.794;13.068;2023-11-21T10:48:04;16.60;;;6.97;;
4821;SDS011;2425;47.794;13.068;2023-11-21T10:50:33;20.20;;;7.00;;
4821;SDS011;2425;47.794;13.068;2023-11-21T10:53:01;21.83;;;7.13;;
4821;SDS011;2425;47.794;13.068;2023-11-21T10:55:30;15.80;;;6.50;;
4821;SDS011;2425;47.794;13.068;2023-11-21T10:57:58;14.03;;;6.30;;
4821;SDS011;2425;47.794;13.068;2023-11-21T11:00:27;16.60;;;6.83;;
4821;SDS011;2425;47.794;13.068;2023-11-21T11:02:54;18.40;;;6.40;;
4821;SDS011;2425;47.794;13.068;2023-11-21T11:05:24;12.30;;;6.33;;
4821;SDS011;2425;47.794;13.068;2023-11-21T11:07:52;18.73;;;6.20;;
4821;SDS011;2425;47.794;13.068;2023-11-21T11:10:26;10.83;;;6.03;;
4821;SDS011;2425;47.794;13.068;2023-11-21T11:12:55;13.60;;;6.30;;
4821;SDS011;2425;47.794;13.068;2023-11-21T11:15:23;16.40;;;6.13;;
4821;SDS011;2425;47.794;13.068;2023-11-21T11:17:50;13.30;;;6.00;;
4821;SDS011;2425;47.794;13.068;2023-11-21T11:20:17;13.40;;;5.93;;
4821;SDS011;2425;47.794;13.068;2023-11-21T11:22:48;11.10;;;6.00;;
4821;SDS011;2425;47.794;13.068;2023-11-21T11:28:17;19.33;;;6.70;;
4821;SDS011;2425;47.794;13.068;2023-11-21T11:30:49;14.17;;;6.90;;
4821;SDS011;2425;47.794;13.068;2023-11-21T11:33:25;15.03;;;6.87;;
4821;SDS011;2425;47.794;13.068;2023-11-21T11:36:02;13.23;;;7.13;;
4821;SDS011;2425;47.794;13.068;2023-11-21T11:38:33;16.03;;;7.30;;
4821;SDS011;2425;47.794;13.068;2023-11-21T11:41:01;24.80;;;9.50;;
4821;SDS011;2425;47.794;13.068;2023-11-21T11:43:30;22.77;;;10.70;;
4821;SDS011;2425;47.794;13.068;2023-11-21T11:46:05;30.60;;;11.93;;
4821;SDS011;2425;47.794;13.068;2023-11-21T11:48:34;28.70;;;12.00;;
4821;SDS011;2425;47.794;13.068;2023-11-21T11:51:03;28.53;;;13.50;;
4821;SDS011;2425;47.794;13.068;2023-11-21T11:53:35;29.07;;;14.50;;
4821;SDS011;2425;47.794;13.068;2023-11-21T11:56:19;35.70;;;17.00;;
4821;SDS011;2425;47.794;13.068;2023-11-21T11:58:49;28.40;;;15.90;;
4821;SDS011;2425;47.794;13.068;2023-11-21T12:01:18;31.03;;;17.30;;
4821;SDS011;2425;47.794;13.068;2023-11-21T12:03:45;35.20;;;18.37;;
4821;SDS011;2425;47.794;13.068;2023-11-21T12:06:56;47.33;;;20.40;;
4821;SDS011;2425;47.794;13.068;2023-11-21T12:09:25;43.93;;;23.27;;
4821;SDS011;2425;47.794;13.068;2023-11-21T12:11:52;52.50;;;26.77;;
4821;SDS011;2425;47.794;13.068;2023-11-21T12:14:21;64.07;;;32.17;;
4821;SDS011;2425;47.794;13.068;2023-11-21T12:16:48;69.07;;;34.97;;
4821;SDS011;2425;47.794;13.068;2023-11-21T12:19:16;68.23;;;35.90;;
4821;SDS011;2425;47.794;13.068;2023-11-21T12:21:43;81.67;;;40.10;;
4821;SDS011;2425;47.794;13.068;2023-11-21T12:24:10;78.63;;;39.97;;
4821;SDS011;2425;47.794;13.068;2023-11-21T12:26:38;81.40;;;39.37;;
4821;SDS011;2425;47.794;13.068;2023-11-21T12:29:05;75.83;;;40.47;;
4821;SDS011;2425;47.794;13.068;2023-11-21T12:31:34;88.63;;;40.40;;
4821;SDS011;2425;47.794;13.068;2023-11-21T12:34:01;74.70;;;39.07;;
4821;SDS011;2425;47.794;13.068;2023-11-21T12:36:28;79.83;;;39.30;;
4821;SDS011;2425;47.794;13.068;2023-11-21T12:38:55;67.20;;;37.37;;
4821;SDS011;2425;47.794;13.068;2023-11-21T12:41:22;73.70;;;39.07;;
4821;SDS011;2425;47.794;13.068;2023-11-21T12:43:49;81.43;;;39.53;;
4821;SDS011;2425;47.794;13.068;2023-11-21T12:46:16;74.87;;;39.53;;
4821;SDS011;2425;47.794;13.068;2023-11-21T12:48:44;77.37;;;37.60;;
4821;SDS011;2425;47.794;13.068;2023-11-21T12:51:12;68.93;;;35.93;;
4821;SDS011;2425;47.794;13.068;2023-11-21T12:53:41;64.27;;;35.03;;
4821;SDS011;2425;47.794;13.068;2023-11-21T12:56:09;67.33;;;36.37;;
4821;SDS011;2425;47.794;13.068;2023-11-21T12:58:37;71.37;;;34.70;;
4821;SDS011;2425;47.794;13.068;2023-11-21T13:01:04;67.80;;;34.00;;
4821;SDS011;2425;47.794;13.068;2023-11-21T13:03:36;66.80;;;33.57;;
4821;SDS011;2425;47.794;13.068;2023-11-21T13:06:06;63.03;;;34.20;;
4821;SDS011;2425;47.794;13.068;2023-11-21T13:08:33;65.33;;;34.20;;
4821;SDS011;2425;47.794;13.068;2023-11-21T13:11:04;56.60;;;31.30;;
4821;SDS011;2425;47.794;13.068;2023-11-21T13:13:32;56.20;;;32.30;;
4821;SDS011;2425;47.794;13.068;2023-11-21T13:15:59;49.97;;;29.20;;
4821;SDS011;2425;47.794;13.068;2023-11-21T13:18:29;58.50;;;30.63;;
4821;SDS011;2425;47.794;13.068;2023-11-21T13:20:57;58.57;;;31.07;;
4821;SDS011;2425;47.794;13.068;2023-11-21T13:23:26;52.33;;;30.17;;
4821;SDS011;2425;47.794;13.068;2023-11-21T13:25:54;50.43;;;28.93;;
4821;SDS011;2425;47.794;13.068;2023-11-21T13:28:21;46.80;;;27.83;;
4821;SDS011;2425;47.794;13.068;2023-11-21T13:30:49;50.03;;;27.77;;
4821;SDS011;2425;47.794;13.068;2023-11-21T13:33:17;50.53;;;26.97;;
4821;SDS011;2425;47.794;13.068;2023-11-21T13:35:47;47.13;;;26.40;;
4821;SDS011;2425;47.794;13.068;2023-11-21T13:38:16;47.20;;;26.13;;
4821;SDS011;2425;47.794;13.068;2023-11-21T13:40:50;49.87;;;25.13;;
4821;SDS011;2425;47.794;13.068;2023-11-21T13:43:19;46.73;;;24.60;;
4821;SDS011;2425;47.794;13.068;2023-11-21T13:45:47;46.37;;;23.10;;
4821;SDS011;2425;47.794;13.068;2023-11-21T13:48:16;39.67;;;22.37;;
4821;SDS011;2425;47.794;13.068;2023-11-21T13:50:50;43.47;;;23.90;;
4821;SDS011;2425;47.794;13.068;2023-11-21T13:53:22;42.20;;;24.13;;
4821;SDS011;2425;47.794;13.068;2023-11-21T13:55:51;42.13;;;24.10;;
4821;SDS011;2425;47.794;13.068;2023-11-21T13:58:19;41.53;;;23.07;;
4821;SDS011;2425;47.794;13.068;2023-11-21T14:00:49;37.90;;;21.63;;
4821;SDS011;2425;47.794;13.068;2023-11-21T14:03:21;36.27;;;21.63;;
4821;SDS011;2425;47.794;13.068;2023-11-21T14:05:57;38.60;;;21.00;;
4821;SDS011;2425;47.794;13.068;2023-11-21T14:08:26;35.57;;;21.10;;
4821;SDS011;2425;47.794;13.068;2023-11-21T14:10:55;38.43;;;21.10;;
4821;SDS011;2425;47.794;13.068;2023-11-21T14:13:22;39.73;;;21.23;;
4821;SDS011;2425;47.794;13.068;2023-11-21T14:15:49;41.87;;;23.73;;
4821;SDS011;2425;47.794;13.068;2023-11-21T14:18:22;52.83;;;29.03;;
4821;SDS011;2425;47.794;13.068;2023-11-21T14:20:55;55.40;;;30.00;;
4821;SDS011;2425;47.794;13.068;2023-11-21T14:23:22;59.87;;;30.97;;
4821;SDS011;2425;47.794;13.068;2023-11-21T14:25:49;69.63;;;35.90;;
4821;SDS011;2425;47.794;13.068;2023-11-21T14:28:18;70.30;;;37.30;;
4821;SDS011;2425;47.794;13.068;2023-11-21T14:30:45;77.60;;;39.53;;
4821;SDS011;2425;47.794;13.068;2023-11-21T14:33:12;80.47;;;41.83;;
4821;SDS011;2425;47.794;13.068;2023-11-21T14:35:39;79.80;;;40.03;;
4821;SDS011;2425;47.794;13.068;2023-11-21T14:38:05;77.70;;;40.60;;
4821;SDS011;2425;47.794;13.068;2023-11-21T14:40:32;75.10;;;41.47;;
4821;SDS011;2425;47.794;13.068;2023-11-21T14:43:01;83.13;;;42.57;;
4821;SDS011;2425;47.794;13.068;2023-11-21T14:45:31;80.07;;;41.37;;
4821;SDS011;2425;47.794;13.068;2023-11-21T14:47:59;75.13;;;41.03;;
4821;SDS011;2425;47.794;13.068;2023-11-21T14:50:32;71.47;;;39.30;;
4821;SDS011;2425;47.794;13.068;2023-11-21T14:53:15;76.27;;;39.83;;
4821;SDS011;2425;47.794;13.068;2023-11-21T14:55:48;73.13;;;38.23;;
4821;SDS011;2425;47.794;13.068;2023-11-21T14:58:22;68.10;;;39.70;;